sensor_id;sensor_type;location;lat;lon;timestamp;pressure;altitude;pressure_sealevel;temperature;humidity
51972;BME280;37991;49.662;10.060;2022-07-06T00:01:49;99822.50;;;15.69;70.60
51972;BME280;37991;49.662;10.060;2022-07-06T00:04:16;99831.84;;;15.73;70.72
51972;BME280;37991;49.662;10.060;2022-07-06T00:06:42;99831.16;;;15.71;70.52
51972;BME280;37991;49.662;10.060;2022-07-06T00:09:07;99822.41;;;15.70;70.69
51972;BME280;37991;49.662;10.060;2022-07-06T00:11:32;99816.28;;;15.70;71.06
51972;BME280;37991;49.662;10.060;2022-07-06T00:13:58;99830.19;;;15.72;70.67
51972;BME280;37991;49.662;10.060;2022-07-06T00:16:23;99825.63;;;15.74;70.74
51972;BME280;37991;49.662;10.060;2022-07-06T00:18:50;99836.28;;;15.72;70.97
51972;BME280;37991;49.662;10.060;2022-07-06T00:21:15;99837.75;;;15.76;70.76
51972;BME280;37991;49.662;10.060;2022-07-06T00:23:41;99830.19;;;15.72;70.79
51972;BME280;37991;49.662;10.060;2022-07-06T00:26:07;99829.00;;;15.65;70.79
51972;BME280;37991;49.662;10.060;2022-07-06T00:28:32;99834.78;;;15.70;70.91
51972;BME280;37991;49.662;10.060;2022-07-06T00:30:57;99835.09;;;15.65;71.06
51972;BME280;37991;49.662;10.060;2022-07-06T00:33:23;99835.50;;;15.61;71.44
51972;BME280;37991;49.662;10.060;2022-07-06T00:35:48;99837.09;;;15.52;71.55
51972;BME280;37991;49.662;10.060;2022-07-06T00:38:14;99836.53;;;15.48;71.71
51972;BME280;37991;49.662;10.060;2022-07-06T00:40:40;99830.50;;;15.46;72.11
51972;BME280;37991;49.662;10.060;2022-07-06T00:43:06;99829.78;;;15.44;72.04
51972;BME280;37991;49.662;10.060;2022-07-06T00:45:32;99834.25;;;15.44;72.09
51972;BME280;37991;49.662;10.060;2022-07-06T00:47:57;99829.34;;;15.39;72.32
51972;BME280;37991;49.662;10.060;2022-07-06T00:50:22;99826.72;;;15.39;72.47
51972;BME280;37991;49.662;10.060;2022-07-06T00:52:50;99830.91;;;15.42;72.41
51972;BME280;37991;49.662;10.060;2022-07-06T00:55:18;99830.06;;;15.41;72.41
51972;BME280;37991;49.662;10.060;2022-07-06T00:57:44;99835.59;;;15.38;72.31
51972;BME280;37991;49.662;10.060;2022-07-06T01:00:12;99832.25;;;15.36;72.50
51972;BME280;37991;49.662;10.060;2022-07-06T01:02:38;99837.78;;;15.33;72.63
51972;BME280;37991;49.662;10.060;2022-07-06T01:05:04;99845.56;;;15.34;72.60
51972;BME280;37991;49.662;10.060;2022-07-06T01:07:30;99841.63;;;15.29;72.36
51972;BME280;37991;49.662;10.060;2022-07-06T01:09:56;99841.41;;;15.21;72.69
51972;BME280;37991;49.662;10.060;2022-07-06T01:12:21;99838.19;;;15.17;72.83
51972;BME280;37991;49.662;10.060;2022-07-06T01:14:49;99840.00;;;15.17;72.76
51972;BME280;37991;49.662;10.060;2022-07-06T01:17:15;99838.19;;;15.17;72.79
51972;BME280;37991;49.662;10.060;2022-07-06T01:19:43;99837.34;;;15.17;72.73
51972;BME280;37991;49.662;10.060;2022-07-06T01:22:09;99833.16;;;15.14;72.60
51972;BME280;37991;49.662;10.060;2022-07-06T01:24:35;99828.25;;;15.09;72.62
51972;BME280;37991;49.662;10.060;2022-07-06T01:27:05;99827.28;;;15.10;72.86
51972;BME280;37991;49.662;10.060;2022-07-06T01:29:34;99826.72;;;15.07;72.90
51972;BME280;37991;49.662;10.060;2022-07-06T01:32:00;99825.41;;;15.01;72.98
51972;BME280;37991;49.662;10.060;2022-07-06T01:34:25;99822.66;;;15.03;73.00
51972;BME280;37991;49.662;10.060;2022-07-06T01:36:51;99819.53;;;14.98;73.42
51972;BME280;37991;49.662;10.060;2022-07-06T01:39:18;99830.66;;;15.01;73.18
51972;BME280;37991;49.662;10.060;2022-07-06T01:41:44;99830.66;;;15.01;73.14
51972;BME280;37991;49.662;10.060;2022-07-06T01:44:10;99829.94;;;14.99;73.22
51972;BME280;37991;49.662;10.060;2022-07-06T01:46:36;99821.69;;;14.93;73.76
51972;BME280;37991;49.662;10.060;2022-07-06T01:49:03;99834.03;;;14.92;73.95
51972;BME280;37991;49.662;10.060;2022-07-06T01:51:30;99830.19;;;14.96;73.75
51972;BME280;37991;49.662;10.060;2022-07-06T01:53:57;99828.19;;;14.88;73.83
51972;BME280;37991;49.662;10.060;2022-07-06T01:56:24;99829.75;;;14.91;73.87
51972;BME280;37991;49.662;10.060;2022-07-06T01:58:53;99833.34;;;14.90;74.37
51972;BME280;37991;49.662;10.060;2022-07-06T02:01:20;99834.88;;;14.93;74.50
51972;BME280;37991;49.662;10.060;2022-07-06T02:03:46;99840.28;;;14.91;74.75
51972;BME280;37991;49.662;10.060;2022-07-06T02:06:12;99830.72;;;14.90;74.77
51972;BME280;37991;49.662;10.060;2022-07-06T02:08:39;99831.66;;;14.89;74.84
51972;BME280;37991;49.662;10.060;2022-07-06T02:11:06;99829.75;;;14.91;74.97
51972;BME280;37991;49.662;10.060;2022-07-06T02:13:35;99838.50;;;14.92;74.83
51972;BME280;37991;49.662;10.060;2022-07-06T02:16:02;99834.44;;;14.87;74.81
51972;BME280;37991;49.662;10.060;2022-07-06T02:18:28;99843.19;;;14.88;75.26
51972;BME280;37991;49.662;10.060;2022-07-06T02:20:55;99832.03;;;14.84;75.14
51972;BME280;37991;49.662;10.060;2022-07-06T02:23:21;99832.63;;;14.88;75.01
51972;BME280;37991;49.662;10.060;2022-07-06T02:25:47;99832.03;;;14.84;74.94
51972;BME280;37991;49.662;10.060;2022-07-06T02:28:12;99842.94;;;14.80;75.27
51972;BME280;37991;49.662;10.060;2022-07-06T02:30:38;99828.09;;;14.79;75.14
51972;BME280;37991;49.662;10.060;2022-07-06T02:33:03;99844.63;;;14.81;75.25
51972;BME280;37991;49.662;10.060;2022-07-06T02:35:29;99840.06;;;14.83;74.86
51972;BME280;37991;49.662;10.060;2022-07-06T02:37:55;99839.59;;;14.78;75.24
51972;BME280;37991;49.662;10.060;2022-07-06T02:40:20;99845.72;;;14.78;75.46
51972;BME280;37991;49.662;10.060;2022-07-06T02:42:47;99838.38;;;14.71;75.81
51972;BME280;37991;49.662;10.060;2022-07-06T02:45:12;99845.09;;;14.63;76.14
51972;BME280;37991;49.662;10.060;2022-07-06T02:47:37;99840.06;;;14.60;76.01
51972;BME280;37991;49.662;10.060;2022-07-06T02:50:05;99847.53;;;14.55;76.12
51972;BME280;37991;49.662;10.060;2022-07-06T02:52:30;99846.06;;;14.51;76.39
51972;BME280;37991;49.662;10.060;2022-07-06T02:54:57;99847.25;;;14.47;76.38
51972;BME280;37991;49.662;10.060;2022-07-06T02:57:23;99850.13;;;14.44;76.74
51972;BME280;37991;49.662;10.060;2022-07-06T02:59:48;99854.94;;;14.39;76.91
51972;BME280;37991;49.662;10.060;2022-07-06T03:02:16;99857.56;;;14.39;76.85
51972;BME280;37991;49.662;10.060;2022-07-06T03:04:42;99863.06;;;14.36;77.09
51972;BME280;37991;49.662;10.060;2022-07-06T03:07:07;99862.56;;;14.31;76.78
51972;BME280;37991;49.662;10.060;2022-07-06T03:09:33;99863.31;;;14.33;76.59
51972;BME280;37991;49.662;10.060;2022-07-06T03:11:58;99868.19;;;14.26;76.96
51972;BME280;37991;49.662;10.060;2022-07-06T03:14:25;99864.84;;;14.24;77.05
51972;BME280;37991;49.662;10.060;2022-07-06T03:16:51;99861.84;;;14.17;77.13
51972;BME280;37991;49.662;10.060;2022-07-06T03:19:17;99862.69;;;14.18;76.94
51972;BME280;37991;49.662;10.060;2022-07-06T03:21:44;99864.44;;;14.06;77.40
51972;BME280;37991;49.662;10.060;2022-07-06T03:24:09;99858.59;;;14.03;77.58
51972;BME280;37991;49.662;10.060;2022-07-06T03:26:34;99865.41;;;14.05;77.42
51972;BME280;37991;49.662;10.060;2022-07-06T03:29:00;99867.31;;;14.03;77.42
51972;BME280;37991;49.662;10.060;2022-07-06T03:31:25;99866.13;;;13.96;78.00
51972;BME280;37991;49.662;10.060;2022-07-06T03:33:51;99864.44;;;13.95;77.79
51972;BME280;37991;49.662;10.060;2022-07-06T03:36:18;99865.75;;;13.89;77.71
51972;BME280;37991;49.662;10.060;2022-07-06T03:38:43;99871.84;;;13.90;77.72
51972;BME280;37991;49.662;10.060;2022-07-06T03:41:09;99874.91;;;13.72;78.64
51972;BME280;37991;49.662;10.060;2022-07-06T03:43:35;99883.13;;;13.68;78.94
51972;BME280;37991;49.662;10.060;2022-07-06T03:46:01;99882.53;;;13.64;79.23
51972;BME280;37991;49.662;10.060;2022-07-06T03:48:26;99877.72;;;13.58;79.25
51972;BME280;37991;49.662;10.060;2022-07-06T03:50:52;99882.03;;;13.59;79.27
51972;BME280;37991;49.662;10.060;2022-07-06T03:53:18;99883.50;;;13.63;79.06
51972;BME280;37991;49.662;10.060;2022-07-06T03:55:44;99870.50;;;13.49;79.82
51972;BME280;37991;49.662;10.060;2022-07-06T03:58:29;99878.00;;;13.42;80.02
51972;BME280;37991;49.662;10.060;2022-07-06T04:00:54;99881.06;;;13.36;80.19
51972;BME280;37991;49.662;10.060;2022-07-06T04:03:20;99873.09;;;13.38;80.60
51972;BME280;37991;49.662;10.060;2022-07-06T04:05:47;99882.63;;;13.28;81.27
51972;BME280;37991;49.662;10.060;2022-07-06T04:08:13;99883.66;;;13.25;81.28
51972;BME280;37991;49.662;10.060;2022-07-06T04:10:45;99884.06;;;13.32;81.35
51972;BME280;37991;49.662;10.060;2022-07-06T04:13:11;99888.38;;;13.33;81.31
51972;BME280;37991;49.662;10.060;2022-07-06T04:15:37;99892.22;;;13.40;81.40
51972;BME280;37991;49.662;10.060;2022-07-06T04:18:03;99902.44;;;13.44;81.70
51972;BME280;37991;49.662;10.060;2022-07-06T04:20:34;99900.41;;;13.48;81.36
51972;BME280;37991;49.662;10.060;2022-07-06T04:23:00;99910.59;;;13.53;81.53
51972;BME280;37991;49.662;10.060;2022-07-06T04:25:26;99896.50;;;13.54;82.09
51972;BME280;37991;49.662;10.060;2022-07-06T04:27:55;99906.50;;;13.72;81.29
51972;BME280;37991;49.662;10.060;2022-07-06T04:30:21;99907.50;;;13.83;80.98
51972;BME280;37991;49.662;10.060;2022-07-06T04:32:47;99914.47;;;13.95;80.62
51972;BME280;37991;49.662;10.060;2022-07-06T04:35:13;99910.44;;;14.02;80.49
51972;BME280;37991;49.662;10.060;2022-07-06T04:37:40;99914.66;;;14.16;80.19
51972;BME280;37991;49.662;10.060;2022-07-06T04:40:06;99914.78;;;14.26;79.83
51972;BME280;37991;49.662;10.060;2022-07-06T04:42:32;99915.78;;;14.36;79.73
51972;BME280;37991;49.662;10.060;2022-07-06T04:44:57;99923.94;;;14.44;79.85
51972;BME280;37991;49.662;10.060;2022-07-06T04:47:23;99921.34;;;14.55;79.50
51972;BME280;37991;49.662;10.060;2022-07-06T04:49:48;99922.41;;;14.64;79.47
51972;BME280;37991;49.662;10.060;2022-07-06T04:52:14;99919.88;;;14.74;79.12
51972;BME280;37991;49.662;10.060;2022-07-06T04:54:39;99919.91;;;14.85;78.93
51972;BME280;37991;49.662;10.060;2022-07-06T04:57:05;99925.53;;;14.92;79.07
51972;BME280;37991;49.662;10.060;2022-07-06T04:59:31;99930.09;;;15.01;78.02
51972;BME280;37991;49.662;10.060;2022-07-06T05:01:58;99927.66;;;15.09;77.80
51972;BME280;37991;49.662;10.060;2022-07-06T05:04:24;99922.53;;;15.07;78.35
51972;BME280;37991;49.662;10.060;2022-07-06T05:06:49;99931.50;;;15.16;78.58
51972;BME280;37991;49.662;10.060;2022-07-06T05:09:15;99936.16;;;15.24;78.16
51972;BME280;37991;49.662;10.060;2022-07-06T05:11:42;99935.94;;;15.27;78.12
51972;BME280;37991;49.662;10.060;2022-07-06T05:14:08;99931.47;;;15.39;76.04
51972;BME280;37991;49.662;10.060;2022-07-06T05:16:34;99931.81;;;15.45;75.84
51972;BME280;37991;49.662;10.060;2022-07-06T05:18:59;99928.78;;;15.50;74.92
51972;BME280;37991;49.662;10.060;2022-07-06T05:21:26;99928.28;;;15.56;73.40
51972;BME280;37991;49.662;10.060;2022-07-06T05:23:51;99929.22;;;15.66;72.90
51972;BME280;37991;49.662;10.060;2022-07-06T05:26:17;99931.84;;;15.77;72.70
51972;BME280;37991;49.662;10.060;2022-07-06T05:28:43;99939.28;;;15.84;72.41
51972;BME280;37991;49.662;10.060;2022-07-06T05:31:12;99938.00;;;15.99;71.15
51972;BME280;37991;49.662;10.060;2022-07-06T05:33:39;99940.97;;;16.06;70.55
51972;BME280;37991;49.662;10.060;2022-07-06T05:36:04;99939.41;;;16.24;68.85
51972;BME280;37991;49.662;10.060;2022-07-06T05:38:31;99940.66;;;16.41;68.70
51972;BME280;37991;49.662;10.060;2022-07-06T05:40:57;99942.56;;;16.60;67.67
51972;BME280;37991;49.662;10.060;2022-07-06T05:43:23;99942.97;;;16.76;66.80
51972;BME280;37991;49.662;10.060;2022-07-06T05:45:50;99945.06;;;16.82;66.81
51972;BME280;37991;49.662;10.060;2022-07-06T05:48:17;99953.63;;;16.95;66.94
51972;BME280;37991;49.662;10.060;2022-07-06T05:51:02;99956.31;;;17.05;65.96
51972;BME280;37991;49.662;10.060;2022-07-06T05:53:28;99950.88;;;17.16;65.92
51972;BME280;37991;49.662;10.060;2022-07-06T05:55:55;99954.53;;;17.25;65.75
51972;BME280;37991;49.662;10.060;2022-07-06T05:58:21;99947.72;;;17.32;65.56
51972;BME280;37991;49.662;10.060;2022-07-06T06:00:47;99947.47;;;17.35;65.37
51972;BME280;37991;49.662;10.060;2022-07-06T06:03:17;99939.97;;;17.50;65.22
51972;BME280;37991;49.662;10.060;2022-07-06T06:05:43;99938.88;;;17.62;64.59
51972;BME280;37991;49.662;10.060;2022-07-06T06:08:10;99947.81;;;17.71;64.62
51972;BME280;37991;49.662;10.060;2022-07-06T06:10:35;99953.00;;;17.82;64.17
51972;BME280;37991;49.662;10.060;2022-07-06T06:13:05;99943.09;;;17.94;63.31
51972;BME280;37991;49.662;10.060;2022-07-06T06:15:32;99947.56;;;17.94;63.54
51972;BME280;37991;49.662;10.060;2022-07-06T06:17:57;99953.16;;;17.91;63.65
51972;BME280;37991;49.662;10.060;2022-07-06T06:20:23;99943.50;;;17.99;63.56
51972;BME280;37991;49.662;10.060;2022-07-06T06:22:53;99949.50;;;18.11;63.20
51972;BME280;37991;49.662;10.060;2022-07-06T06:25:21;99946.97;;;18.29;62.79
51972;BME280;37991;49.662;10.060;2022-07-06T06:27:46;99947.00;;;18.66;61.66
51972;BME280;37991;49.662;10.060;2022-07-06T06:30:13;99952.50;;;19.02;60.22
51972;BME280;37991;49.662;10.060;2022-07-06T06:32:39;99944.44;;;19.21;58.83
51972;BME280;37991;49.662;10.060;2022-07-06T06:35:05;99946.59;;;19.36;58.21
51972;BME280;37991;49.662;10.060;2022-07-06T06:37:31;99948.63;;;19.69;57.58
51972;BME280;37991;49.662;10.060;2022-07-06T06:39:57;99944.47;;;19.85;56.75
51972;BME280;37991;49.662;10.060;2022-07-06T06:42:22;99944.56;;;20.19;56.02
51972;BME280;37991;49.662;10.060;2022-07-06T06:44:49;99940.72;;;20.13;55.66
51972;BME280;37991;49.662;10.060;2022-07-06T06:47:15;99939.94;;;20.47;54.65
51972;BME280;37991;49.662;10.060;2022-07-06T06:49:40;99935.41;;;20.92;53.88
51972;BME280;37991;49.662;10.060;2022-07-06T06:52:05;99931.78;;;21.09;53.61
51972;BME280;37991;49.662;10.060;2022-07-06T06:54:31;99934.69;;;21.24;53.49
51972;BME280;37991;49.662;10.060;2022-07-06T06:56:56;99941.59;;;21.43;53.72
51972;BME280;37991;49.662;10.060;2022-07-06T06:59:21;99941.28;;;21.46;52.92
51972;BME280;37991;49.662;10.060;2022-07-06T07:01:47;99948.69;;;21.76;52.47
51972;BME280;37991;49.662;10.060;2022-07-06T07:04:12;99948.81;;;21.75;52.24
51972;BME280;37991;49.662;10.060;2022-07-06T07:06:37;99947.50;;;21.87;52.09
51972;BME280;37991;49.662;10.060;2022-07-06T07:09:03;99946.84;;;21.93;51.76
51972;BME280;37991;49.662;10.060;2022-07-06T07:11:28;99945.03;;;22.02;51.84
51972;BME280;37991;49.662;10.060;2022-07-06T07:13:54;99947.88;;;22.17;51.32
51972;BME280;37991;49.662;10.060;2022-07-06T07:16:19;99941.69;;;22.41;50.28
51972;BME280;37991;49.662;10.060;2022-07-06T07:18:45;99942.84;;;22.46;50.51
51972;BME280;37991;49.662;10.060;2022-07-06T07:21:10;99947.97;;;22.72;50.50
51972;BME280;37991;49.662;10.060;2022-07-06T07:23:35;99948.25;;;22.86;50.34
51972;BME280;37991;49.662;10.060;2022-07-06T07:26:01;99942.53;;;23.05;50.05
51972;BME280;37991;49.662;10.060;2022-07-06T07:28:26;99943.69;;;23.11;49.61
51972;BME280;37991;49.662;10.060;2022-07-06T07:30:51;99945.56;;;23.02;50.05
51972;BME280;37991;49.662;10.060;2022-07-06T07:33:17;99942.09;;;23.25;49.65
51972;BME280;37991;49.662;10.060;2022-07-06T07:35:42;99936.53;;;23.34;49.28
51972;BME280;37991;49.662;10.060;2022-07-06T07:38:08;99938.28;;;23.19;50.10
51972;BME280;37991;49.662;10.060;2022-07-06T07:40:33;99942.06;;;23.33;49.49
51972;BME280;37991;49.662;10.060;2022-07-06T07:43:00;99945.59;;;23.56;49.09
51972;BME280;37991;49.662;10.060;2022-07-06T07:45:25;99951.69;;;23.73;47.55
51972;BME280;37991;49.662;10.060;2022-07-06T07:47:50;99941.91;;;23.57;48.37
51972;BME280;37991;49.662;10.060;2022-07-06T07:50:16;99950.00;;;23.18;49.17
51972;BME280;37991;49.662;10.060;2022-07-06T07:52:41;99946.66;;;23.16;49.08
51972;BME280;37991;49.662;10.060;2022-07-06T07:55:07;99930.63;;;23.78;48.58
51972;BME280;37991;49.662;10.060;2022-07-06T07:57:32;99933.16;;;23.95;47.83
51972;BME280;37991;49.662;10.060;2022-07-06T07:59:58;99938.09;;;24.06;47.29
51972;BME280;37991;49.662;10.060;2022-07-06T08:02:23;99938.03;;;23.91;47.96
51972;BME280;37991;49.662;10.060;2022-07-06T08:04:48;99935.59;;;23.81;48.04
51972;BME280;37991;49.662;10.060;2022-07-06T08:07:14;99938.25;;;24.04;47.58
51972;BME280;37991;49.662;10.060;2022-07-06T08:09:39;99935.34;;;24.14;46.65
51972;BME280;37991;49.662;10.060;2022-07-06T08:12:04;99930.56;;;24.24;46.83
51972;BME280;37991;49.662;10.060;2022-07-06T08:14:30;99927.22;;;23.84;47.75
51972;BME280;37991;49.662;10.060;2022-07-06T08:16:55;99931.47;;;24.17;47.55
51972;BME280;37991;49.662;10.060;2022-07-06T08:19:21;99924.00;;;24.27;46.74
51972;BME280;37991;49.662;10.060;2022-07-06T08:21:46;99922.66;;;23.93;47.53
51972;BME280;37991;49.662;10.060;2022-07-06T08:24:11;99929.22;;;24.05;47.30
51972;BME280;37991;49.662;10.060;2022-07-06T08:26:37;99922.56;;;24.39;46.51
51972;BME280;37991;49.662;10.060;2022-07-06T08:29:03;99931.69;;;24.30;46.86
51972;BME280;37991;49.662;10.060;2022-07-06T08:31:28;99920.72;;;24.40;46.28
51972;BME280;37991;49.662;10.060;2022-07-06T08:33:54;99931.84;;;24.81;46.07
51972;BME280;37991;49.662;10.060;2022-07-06T08:36:20;99929.81;;;24.68;45.53
51972;BME280;37991;49.662;10.060;2022-07-06T08:38:46;99931.66;;;24.82;45.37
51972;BME280;37991;49.662;10.060;2022-07-06T08:41:14;99939.88;;;24.81;45.70
51972;BME280;37991;49.662;10.060;2022-07-06T08:43:40;99937.03;;;24.82;44.54
51972;BME280;37991;49.662;10.060;2022-07-06T08:46:06;99935.81;;;24.70;45.03
51972;BME280;37991;49.662;10.060;2022-07-06T08:48:36;99937.91;;;24.60;45.35
51972;BME280;37991;49.662;10.060;2022-07-06T08:51:04;99935.63;;;24.57;45.27
51972;BME280;37991;49.662;10.060;2022-07-06T08:53:29;99931.38;;;24.77;44.88
51972;BME280;37991;49.662;10.060;2022-07-06T08:55:55;99925.38;;;24.61;45.16
51972;BME280;37991;49.662;10.060;2022-07-06T08:58:23;99937.28;;;24.20;46.01
51972;BME280;37991;49.662;10.060;2022-07-06T09:00:49;99929.66;;;23.71;47.07
51972;BME280;37991;49.662;10.060;2022-07-06T09:03:14;99943.66;;;23.42;48.00
51972;BME280;37991;49.662;10.060;2022-07-06T09:05:42;99942.69;;;23.74;47.77
51972;BME280;37991;49.662;10.060;2022-07-06T09:08:11;99940.75;;;23.83;46.74
51972;BME280;37991;49.662;10.060;2022-07-06T09:10:36;99939.72;;;23.61;47.13
51972;BME280;37991;49.662;10.060;2022-07-06T09:13:06;99933.34;;;23.93;46.41
51972;BME280;37991;49.662;10.060;2022-07-06T09:15:33;99935.88;;;23.86;46.52
51972;BME280;37991;49.662;10.060;2022-07-06T09:17:59;99946.19;;;23.66;47.69
51972;BME280;37991;49.662;10.060;2022-07-06T09:20:24;99933.47;;;23.46;48.26
51972;BME280;37991;49.662;10.060;2022-07-06T09:22:50;99945.25;;;23.28;48.41
51972;BME280;37991;49.662;10.060;2022-07-06T09:25:16;99937.03;;;23.38;48.33
51972;BME280;37991;49.662;10.060;2022-07-06T09:27:47;99940.81;;;23.20;48.08
51972;BME280;37991;49.662;10.060;2022-07-06T09:30:15;99943.41;;;22.89;48.83
51972;BME280;37991;49.662;10.060;2022-07-06T09:32:44;99943.84;;;22.54;49.46
51972;BME280;37991;49.662;10.060;2022-07-06T09:35:39;99943.34;;;22.17;50.05
51972;BME280;37991;49.662;10.060;2022-07-06T09:40:35;99943.88;;;22.29;50.66
51972;BME280;37991;49.662;10.060;2022-07-06T09:43:17;99942.66;;;22.56;50.37
51972;BME280;37991;49.662;10.060;2022-07-06T09:45:49;99944.44;;;22.80;49.46
51972;BME280;37991;49.662;10.060;2022-07-06T09:48:18;99944.66;;;22.62;49.52
51972;BME280;37991;49.662;10.060;2022-07-06T09:50:48;99945.84;;;22.35;49.73
51972;BME280;37991;49.662;10.060;2022-07-06T09:53:14;99941.28;;;22.68;49.67
51972;BME280;37991;49.662;10.060;2022-07-06T09:55:47;99942.63;;;22.72;49.24
51972;BME280;37991;49.662;10.060;2022-07-06T09:58:14;99943.16;;;22.60;49.20
51972;BME280;37991;49.662;10.060;2022-07-06T10:00:44;99946.88;;;22.18;50.06
51972;BME280;37991;49.662;10.060;2022-07-06T10:03:10;99947.53;;;21.95;50.21
51972;BME280;37991;49.662;10.060;2022-07-06T10:05:43;99941.50;;;22.10;50.14
51972;BME280;37991;49.662;10.060;2022-07-06T10:08:09;99936.19;;;21.93;50.18
51972;BME280;37991;49.662;10.060;2022-07-06T10:10:36;99943.38;;;22.34;50.15
51972;BME280;37991;49.662;10.060;2022-07-06T10:13:03;99947.19;;;22.39;49.57
51972;BME280;37991;49.662;10.060;2022-07-06T10:15:29;99937.19;;;22.49;49.31
51972;BME280;37991;49.662;10.060;2022-07-06T10:18:03;99932.44;;;22.76;48.89
51972;BME280;37991;49.662;10.060;2022-07-06T10:20:32;99931.38;;;22.93;48.36
51972;BME280;37991;49.662;10.060;2022-07-06T10:23:00;99942.41;;;22.98;48.49
51972;BME280;37991;49.662;10.060;2022-07-06T10:25:26;99936.06;;;22.83;49.00
51972;BME280;37991;49.662;10.060;2022-07-06T10:27:53;99939.47;;;22.61;49.39
51972;BME280;37991;49.662;10.060;2022-07-06T10:30:19;99927.22;;;22.83;48.86
51972;BME280;37991;49.662;10.060;2022-07-06T10:32:47;99930.19;;;23.04;48.65
51972;BME280;37991;49.662;10.060;2022-07-06T10:35:14;99937.72;;;23.01;48.27
51972;BME280;37991;49.662;10.060;2022-07-06T10:37:40;99939.56;;;22.84;48.19
51972;BME280;37991;49.662;10.060;2022-07-06T10:40:15;99940.25;;;22.78;48.30
51972;BME280;37991;49.662;10.060;2022-07-06T10:43:00;99932.38;;;22.92;47.64
51972;BME280;37991;49.662;10.060;2022-07-06T10:50:39;99938.84;;;23.06;47.89
51972;BME280;37991;49.662;10.060;2022-07-06T10:53:15;99930.88;;;22.90;48.48
51972;BME280;37991;49.662;10.060;2022-07-06T10:55:45;99934.44;;;22.74;47.36
51972;BME280;37991;49.662;10.060;2022-07-06T10:58:34;99929.63;;;22.61;47.63
51972;BME280;37991;49.662;10.060;2022-07-06T11:01:00;99924.22;;;22.78;47.60
51972;BME280;37991;49.662;10.060;2022-07-06T11:06:25;99928.88;;;22.92;47.02
51972;BME280;37991;49.662;10.060;2022-07-06T11:14:16;99936.91;;;22.84;46.70
51972;BME280;37991;49.662;10.060;2022-07-06T11:19:18;99937.22;;;22.89;47.06
51972;BME280;37991;49.662;10.060;2022-07-06T11:21:49;99933.19;;;22.93;46.79
51972;BME280;37991;49.662;10.060;2022-07-06T11:24:20;99930.59;;;22.68;47.34
51972;BME280;37991;49.662;10.060;2022-07-06T11:26:49;99927.47;;;22.57;47.98
51972;BME280;37991;49.662;10.060;2022-07-06T11:29:16;99927.25;;;22.74;48.33
51972;BME280;37991;49.662;10.060;2022-07-06T11:31:44;99932.38;;;22.84;47.02
51972;BME280;37991;49.662;10.060;2022-07-06T11:34:12;99930.94;;;22.73;46.77
51972;BME280;37991;49.662;10.060;2022-07-06T11:36:39;99922.78;;;22.59;46.65
51972;BME280;37991;49.662;10.060;2022-07-06T11:39:06;99922.50;;;22.37;47.66
51972;BME280;37991;49.662;10.060;2022-07-06T11:41:31;99922.66;;;22.36;46.77
51972;BME280;37991;49.662;10.060;2022-07-06T11:43:56;99929.16;;;22.49;46.55
51972;BME280;37991;49.662;10.060;2022-07-06T11:46:30;99922.00;;;22.50;45.73
51972;BME280;37991;49.662;10.060;2022-07-06T11:48:58;99918.94;;;22.61;45.82
51972;BME280;37991;49.662;10.060;2022-07-06T11:51:25;99925.91;;;22.79;46.03
51972;BME280;37991;49.662;10.060;2022-07-06T11:53:53;99936.66;;;23.10;45.51
51972;BME280;37991;49.662;10.060;2022-07-06T11:56:19;99930.69;;;23.00;45.16
51972;BME280;37991;49.662;10.060;2022-07-06T11:58:48;99921.41;;;22.79;44.05
51972;BME280;37991;49.662;10.060;2022-07-06T12:01:14;99921.28;;;22.64;45.21
51972;BME280;37991;49.662;10.060;2022-07-06T12:03:41;99921.41;;;22.71;45.39
51972;BME280;37991;49.662;10.060;2022-07-06T12:06:14;99920.91;;;22.75;46.76
51972;BME280;37991;49.662;10.060;2022-07-06T12:08:54;99921.88;;;22.83;44.11
51972;BME280;37991;49.662;10.060;2022-07-06T12:11:23;99914.88;;;22.82;43.68
51972;BME280;37991;49.662;10.060;2022-07-06T12:13:50;99910.84;;;22.94;43.75
51972;BME280;37991;49.662;10.060;2022-07-06T12:16:16;99909.09;;;23.09;43.75
51972;BME280;37991;49.662;10.060;2022-07-06T12:18:47;99918.47;;;23.13;43.65
51972;BME280;37991;49.662;10.060;2022-07-06T12:21:15;99915.78;;;23.13;42.55
51972;BME280;37991;49.662;10.060;2022-07-06T12:23:49;99904.72;;;23.16;43.08
51972;BME280;37991;49.662;10.060;2022-07-06T12:26:17;99904.16;;;23.29;41.99
51972;BME280;37991;49.662;10.060;2022-07-06T12:28:43;99905.06;;;23.44;41.27
51972;BME280;37991;49.662;10.060;2022-07-06T12:31:09;99912.25;;;23.44;41.35
51972;BME280;37991;49.662;10.060;2022-07-06T12:33:35;99901.16;;;23.55;42.26
51972;BME280;37991;49.662;10.060;2022-07-06T12:36:11;99908.72;;;23.52;41.97
51972;BME280;37991;49.662;10.060;2022-07-06T12:38:46;99912.56;;;23.26;42.08
51972;BME280;37991;49.662;10.060;2022-07-06T12:41:33;99904.44;;;23.11;42.31
51972;BME280;37991;49.662;10.060;2022-07-06T12:44:06;99909.25;;;23.16;41.46
51972;BME280;37991;49.662;10.060;2022-07-06T12:46:37;99903.75;;;23.09;41.29
51972;BME280;37991;49.662;10.060;2022-07-06T12:49:10;99902.78;;;23.10;41.28
51972;BME280;37991;49.662;10.060;2022-07-06T12:51:56;99903.34;;;22.97;43.38
51972;BME280;37991;49.662;10.060;2022-07-06T12:54:24;99904.34;;;22.88;42.35
51972;BME280;37991;49.662;10.060;2022-07-06T12:59:43;99897.38;;;22.79;42.70
51972;BME280;37991;49.662;10.060;2022-07-06T13:02:26;99896.28;;;22.57;42.81
51972;BME280;37991;49.662;10.060;2022-07-06T13:04:58;99895.75;;;22.62;42.86
51972;BME280;37991;49.662;10.060;2022-07-06T13:07:26;99894.56;;;22.64;42.60
51972;BME280;37991;49.662;10.060;2022-07-06T13:09:52;99895.03;;;22.76;42.41
51972;BME280;37991;49.662;10.060;2022-07-06T13:12:18;99896.97;;;22.90;41.42